Flight Track Log - Related Links

Times and Time Zones

All times are in EDT time to prevent confusion due to time zone crossing. See the XOJ552 flight status page for this flight to view local times or setup timezone preferences in your user account.

Time Position Orientation Groundspeed Altitude Reporting Facility
EDT Latitude Longitude Course Direction KTS MPH feet Rate Location/Type
Sun 11:08:51 AM 18.4333 -65.9667 342° North 160 184 1,800  Level San Juan Center
Sun 11:09:52 AM 18.4833 -65.9833 342° North 250 288 5,000 3,481 Climbing San Juan Center
Sun 11:11:52 AM 18.6000 -66.1000 317° Northwest 300 345 12,300 3,315 Climbing San Juan Center
Sun 11:12:53 AM 18.6667 -66.1833 310° West 350 403 15,000 2,727 Climbing San Juan Center
Sun 11:13:53 AM 18.7333 -66.2667 310° West 380 437 17,800 2,650 Climbing San Juan Center
Sun 11:14:53 AM 18.8000 -66.3333 317° Northwest 380 437 20,300 2,600 Climbing San Juan Center
Sun 11:15:53 AM 18.8833 -66.4167 317° Northwest 400 460 23,000 2,628 Climbing San Juan Center
Sun 11:16:54 AM 18.9667 -66.5167 311° West 410 472 25,600 2,479 Climbing San Juan Center
Sun 11:17:54 AM 19.0500 -66.6000 317° Northwest 420 483 28,000 2,100 Climbing San Juan Center
Sun 11:18:54 AM 19.1333 -66.7000 311° West 430 495 29,800 1,785 Climbing San Juan Center
Sun 11:19:55 AM 19.2167 -66.8000 311° West 450 518 31,600 1,636 Climbing San Juan Center
Sun 11:20:55 AM 19.3000 -66.9000 311° West 460 529 33,100 1,400 Climbing San Juan Center
Sun 11:21:55 AM 19.3833 -67.0000 311° West 470 541 34,400 1,438 Climbing San Juan Center
Sun 11:22:56 AM 19.4667 -67.1167 307° West 470 541 36,000 1,884 Climbing San Juan Center
Sun 11:23:56 AM 19.5333 -67.2167 305° West 450 518 38,200 1,950 Climbing San Juan Center
Sun 11:24:56 AM 19.6167 -67.3167 312° West 460 529 39,900 1,686 Climbing San Juan Center
Sun 11:25:57 AM 19.7000 -67.4000 317° Northwest 430 495 41,600 1,537 Climbing San Juan Center
Sun 11:26:57 AM 19.7667 -67.5000 305° West 420 483 43,000 700 Climbing San Juan Center
Sun 11:27:57 AM 19.8333 -67.6000 305° West 420 483 43,000  Level San Juan Center
Sun 11:28:58 AM 19.9000 -67.7000 305° West 440 506 43,000  Level San Juan Center
Sun 11:29:58 AM 20.0000 -67.8167 312° West 460 529 43,000  Level San Juan Center
Sun 11:30:58 AM 20.0667 -67.9000 310° West 440 506 43,000  Level San Juan Center
Sun 11:31:58 AM 20.1500 -68.0167 307° West 440 506 43,000  Level San Juan Center
Sun 11:32:41 AM 20.2031 -68.1019 304° West 452 520 43,000  Level Miami Center
Sun 11:33:41 AM 20.2675 -68.2103 302° West 442 509 43,000  Level Miami Center
Sun 11:34:41 AM 20.3558 -68.3064 314° West 542 624 43,000  Level Miami Center
Sun 11:35:41 AM 20.4283 -68.4122 306° West 486 559 43,000  Level Miami Center
Sun 11:36:41 AM 20.4886 -68.5256 300° West 457 526 43,000  Level Miami Center
Sun 11:37:41 AM 20.5547 -68.6342 303° West 443 510 43,000  Level Miami Center
Sun 11:38:41 AM 20.6169 -68.7456 301° West 443 510 43,000  Level Miami Center
Sun 11:39:41 AM 20.6808 -68.8544 302° West 443 510 43,000  Level Miami Center
Sun 11:40:41 AM 20.7428 -68.9661 301° West 437 503 43,000  Level Miami Center
Sun 11:41:41 AM 20.8086 -69.0753 303° West 437 503 43,000  Level Miami Center
Sun 11:42:41 AM 20.8767 -69.1842 304° West 437 503 43,000  Level Miami Center
Sun 11:43:41 AM 20.9406 -69.2981 301° West 437 503 43,000  Level Miami Center
Sun 11:44:41 AM 21.0111 -69.4208 302° West 437 503 43,000  Level Miami Center
Sun 11:45:41 AM 21.0767 -69.5303 303° West 437 503 43,000  Level Miami Center
Sun 11:46:41 AM 21.1406 -69.6467 300° West 442 509 43,000  Level Miami Center
Sun 11:47:41 AM 21.2061 -69.7567 303° West 442 509 43,000  Level Miami Center
Sun 11:48:41 AM 21.2675 -69.8711 300° West 442 509 43,000  Level Miami Center
Sun 11:49:41 AM 21.3331 -69.9811 303° West 442 509 43,000  Level Miami Center
Sun 11:50:41 AM 21.3964 -70.0958 301° West 442 509 43,000  Level Miami Center
Sun 11:51:41 AM 21.4642 -70.2106 302° West 442 509 43,000  Level Miami Center
Sun 11:52:41 AM 21.5292 -70.3211 302° West 442 509 43,000  Level Miami Center
Sun 11:53:41 AM 21.5925 -70.4339 301° West 442 509 43,000  Level Miami Center
Sun 11:54:41 AM 21.6511 -70.5403 301° West 442 509 43,000  Level Miami Center
Sun 11:55:41 AM 21.7181 -70.6508 303° West 442 509 43,000  Level Miami Center
Sun 11:56:41 AM 21.7811 -70.7664 300° West 442 509 43,000  Level Miami Center
Sun 11:57:41 AM 21.8483 -70.8817 302° West 447 514 43,000  Level Miami Center
Sun 11:58:41 AM 21.9111 -70.9950 301° West 447 514 43,000  Level Miami Center
Sun 11:59:41 AM 21.9758 -71.1086 302° West 447 514 43,000  Level Miami Center
Sun 12:00:41 PM 22.0408 -71.2242 301° West 452 520 43,000  Level Miami Center
Sun 12:01:41 PM 22.1056 -71.3403 301° West 452 520 43,000  Level Miami Center
Sun 12:02:41 PM 22.1703 -71.4539 302° West 452 520 43,000  Level Miami Center
Sun 12:03:41 PM 22.2347 -71.5700 301° West 452 520 43,000  Level Miami Center
Sun 12:04:41 PM 22.2972 -71.6886 300° West 452 520 43,000  Level Miami Center
Sun 12:05:41 PM 22.3639 -71.8072 301° West 457 526 43,000  Level Miami Center
Sun 12:06:41 PM 22.4281 -71.9192 302° West 457 526 43,000  Level Miami Center
Sun 12:07:41 PM 22.4925 -72.0381 300° West 457 526 43,000  Level Miami Center
Sun 12:08:41 PM 22.5567 -72.1547 301° West 457 526 43,000  Level Miami Center
Sun 12:09:41 PM 22.6228 -72.2717 302° West 457 526 43,000  Level Miami Center
Sun 12:10:41 PM 22.6847 -72.3864 300° West 457 526 43,000  Level Miami Center
Sun 12:11:41 PM 22.7489 -72.5036 301° West 457 526 43,000  Level Miami Center
Sun 12:12:41 PM 22.8167 -72.6183 303° West 457 526 43,000  Level Miami Center
Sun 12:13:41 PM 22.8764 -72.7381 298° West 452 520 43,000  Level Miami Center
Sun 12:14:41 PM 22.9444 -72.8553 302° West 452 520 43,000  Level Miami Center
Sun 12:15:41 PM 23.0081 -72.9731 300° West 452 520 43,000  Level Miami Center
Sun 12:16:41 PM 23.0614 -73.1022 294° West 458 527 43,000  Level Miami Center
Sun 12:17:41 PM 23.1247 -73.2178 301° West 458 527 43,000  Level Miami Center
Sun 12:18:41 PM 23.1903 -73.3381 301° West 453 521 43,000  Level Miami Center
Sun 12:19:41 PM 23.2536 -73.4561 300° West 453 521 43,000  Level Miami Center
Sun 12:20:41 PM 23.3147 -73.5764 299° West 453 521 43,000  Level Miami Center
Sun 12:21:41 PM 23.3800 -73.6925 302° West 453 521 43,000  Level Miami Center
Sun 12:22:41 PM 23.4411 -73.8156 298° West 458 527 43,000  Level Miami Center
Sun 12:23:41 PM 23.5081 -73.9339 302° West 458 527 43,000  Level Miami Center
Sun 12:24:41 PM 23.5689 -74.0550 299° West 458 527 43,000  Level Miami Center
Sun 12:25:41 PM 23.6339 -74.1758 300° West 458 527 43,000  Level Miami Center
Sun 12:26:41 PM 23.6986 -74.2947 301° West 458 527 43,000  Level Miami Center
Sun 12:27:41 PM 23.7678 -74.4250 300° West 453 521 43,000  Level Miami Center
Sun 12:28:41 PM 23.8281 -74.5442 299° West 453 521 43,000  Level Miami Center
Sun 12:29:41 PM 23.8906 -74.6636 300° West 453 521 43,000  Level Miami Center
Sun 12:30:41 PM 23.9550 -74.7853 300° West 458 527 43,000  Level Miami Center
Sun 12:31:41 PM 24.0172 -74.9069 299° West 458 527 43,000  Level Miami Center
Sun 12:32:41 PM 24.0772 -75.0197 300° West 463 533 43,000  Level Miami Center
Sun 12:33:41 PM 24.1414 -75.1442 299° West 463 533 43,000  Level Miami Center
Sun 12:34:41 PM 24.2033 -75.2642 300° West 463 533 43,000  Level Miami Center
Sun 12:35:41 PM 24.2672 -75.3886 299° West 463 533 43,000  Level Miami Center
Sun 12:36:41 PM 24.3289 -75.5133 299° West 463 533 43,000  Level Miami Center
Sun 12:37:41 PM 24.3928 -75.6358 300° West 463 533 43,000  Level Miami Center
Sun 12:38:41 PM 24.4544 -75.7561 299° West 458 527 43,000  Level Miami Center
Sun 12:39:41 PM 24.5178 -75.8767 300° West 452 520 43,000  Level Miami Center
Sun 12:40:41 PM 24.5772 -76.0019 298° West 457 526 43,000  Level Miami Center
Sun 12:41:41 PM 24.6383 -76.1225 299° West 457 526 43,000  Level Miami Center
Sun 12:42:41 PM 24.7081 -76.2547 300° West 457 526 43,000  Level Miami Center
Sun 12:43:41 PM 24.7669 -76.3736 299° West 452 520 43,000  Level Miami Center
Sun 12:44:41 PM 24.8281 -76.4947 299° West 452 520 43,000  Level Miami Center
Sun 12:45:41 PM 24.8867 -76.6161 298° West 452 520 43,000  Level Miami Center
Sun 12:46:41 PM 24.9494 -76.7372 300° West 457 526 43,000  Level Miami Center
Sun 12:47:41 PM 25.0103 -76.8611 298° West 457 526 43,000  Level Miami Center
Sun 12:48:41 PM 25.0708 -76.9828 299° West 457 526 43,000  Level Miami Center
Sun 12:49:41 PM 25.1333 -77.1067 299° West 457 526 43,000 -750 Level Miami Center
Sun 12:50:41 PM 25.1936 -77.2239 300° West 452 520 41,500 -2,150 Descending Miami Center
Sun 12:51:41 PM 25.2539 -77.3483 298° West 452 520 38,700 -2,800 Descending Miami Center
Sun 12:52:41 PM 25.3119 -77.4703 298° West 452 520 35,900 -2,600 Descending Miami Center
Sun 12:53:41 PM 25.3617 -77.5764 297° West 452 520 33,500 -2,600 Descending Miami Center
Sun 12:54:41 PM 25.4239 -77.6986 299° West 452 520 30,700 -2,700 Descending Miami Center
Sun 12:55:41 PM 25.4856 -77.8256 298° West 457 526 28,100 -1,350 Descending Miami Center
Sun 12:56:41 PM 25.5475 -77.9575 298° West 462 532 28,000 -600 Descending Miami Center
Sun 12:57:41 PM 25.6111 -78.0872 299° West 468 539 26,900 -1,100 Descending Miami Center
Sun 12:58:41 PM 25.6728 -78.2169 298° West 474 545 25,800 -1,100 Descending Miami Center
Sun 12:59:41 PM 25.7403 -78.3536 299° West 474 545 24,700 -1,250 Descending Miami Center
Sun 01:00:41 PM 25.8017 -78.4792 299° West 469 540 23,300 -1,300 Descending Miami Center
Sun 01:01:41 PM 25.8608 -78.6047 298° West 469 540 22,100 -1,250 Descending Miami Center
Sun 01:02:41 PM 25.9158 -78.7278 296° West 456 525 20,800 -1,050 Descending Miami Center
Sun 01:03:41 PM 25.9789 -78.8467 301° West 451 519 20,000 -400 Descending Miami Center
Sun 01:04:41 PM 26.0383 -78.9472 303° West 446 513 20,000 -450 Level Miami Center
Sun 01:05:41 PM 26.0992 -79.0569 302° West 433 498 19,100 -2,100 Descending Miami Center
Sun 01:06:41 PM 26.1603 -79.1600 303° West 415 478 15,800 -3,150 Descending Miami Center
Sun 01:07:41 PM 26.2172 -79.2631 302° West 404 465 12,800 -2,900 Descending Miami Center
Sun 01:08:41 PM 26.2681 -79.3542 302° West 372 428 10,000 -2,750 Descending Miami Center
Sun 01:09:41 PM 26.3125 -79.4342 302° West 318 366 7,300 -2,450 Descending Miami Center
Sun 01:10:41 PM 26.3631 -79.5208 303° West 302 348 5,100 -1,150 Descending Miami Center
Sun 01:11:41 PM 26.3994 -79.5867 302° West 295 339 5,000 -50 Descending Miami Center
Sun 01:12:41 PM 26.4481 -79.6736 302° West 295 339 5,000 -350 Level Miami Center
Sun 01:13:41 PM 26.4675 -79.7461 287° West 290 334 4,300 -500 Descending Miami Center
Sun 01:14:41 PM 26.4906 -79.8417 285° West 290 334 4,000 -150 Descending Miami Center
Sun 01:15:41 PM 26.5078 -79.9211 284° West 290 334 4,000  Level Miami Center
Sun 01:16:41 PM 26.5289 -80.0144 284° West 290 334 4,000  Level Miami Center
Sun 01:17:41 PM 26.5439 -80.0939 282° West 285 328 4,000  Level Miami Center
Sun 01:18:41 PM 26.5525 -80.1683 277° West 266 306 4,000  Level Miami Center
Sun 01:19:41 PM 26.5717 -80.2456 286° West 240 276 4,000  Level Miami Center
Sun 01:21:00 PM 26.6574 -80.0964 51° Northeast  Level FlightAware Approximate
Sun 01:28:00 PM 26.6667 -80.0833 North  Level FlightAware Approximate
Sun 01:29:00 PM 26.6832 -80.0956 North  Level Estimated
Sun 01:30:00 PM 26.6832 -80.0956 North  Level Estimated
Sun 01:31:00 PM 26.6832 -80.0956 North  Level Estimated
Sun 01:32:00 PM 26.6832 -80.0956 North  Level Estimated
Sun 01:33:00 PM 26.6832 -80.0956 North  Level Estimated
Sun 01:34:00 PM 26.6832 -80.0956 North  Level Estimated

Login

Don't have an account? Register now (free) for customized features, flight alerts, and more!